Time;durP1;ratioP1;P1;durP2;ratioP2;P2;SDS_P1;SDS_P2;PMS_P1;PMS_P2;Temp;Humidity;BMP_temperature;BMP_pressure;BME280_temperature;BME280_humidity;BME280_pressure;Samples;Min_cycle;Max_cycle;Signal;HPM_P1;HPM_P2
2021/03/15 00:00:57;;;;;;;0.27;0.27;;;1.20;99.90;;;1.91;64.99;94212.25;5046801;28;20210;-70
2021/03/15 00:03:24;;;;;;;0.60;0.40;;;1.20;99.90;;;1.93;65.95;94205.00;5046606;28;20303;-70
2021/03/15 00:05:50;;;;;;;0.23;0.23;;;1.20;99.90;;;1.97;65.89;94203.59;5050257;28;20167;-70
2021/03/15 00:08:16;;;;;;;0.20;0.20;;;1.20;99.90;;;1.99;65.98;94202.38;5066058;28;20318;-70
2021/03/15 00:10:42;;;;;;;0.20;0.20;;;1.20;99.90;;;2.05;66.03;94208.56;5062825;28;20176;-71
2021/03/15 00:13:11;;;;;;;0.17;0.17;;;1.30;99.90;;;2.05;65.30;94205.97;5043978;28;20178;-70
2021/03/15 00:15:39;;;;;;;0.10;0.10;;;1.30;99.90;;;2.06;65.19;94202.34;5030006;28;20815;-70
2021/03/15 00:18:05;;;;;;;0.20;0.20;;;1.30;99.90;;;2.06;65.21;94205.78;5049273;28;20184;-70
2021/03/15 00:20:32;;;;;;;0.27;0.27;;;1.30;99.90;;;2.07;65.22;94214.41;5068063;28;20183;-70
2021/03/15 00:22:58;;;;;;;0.27;0.27;;;1.30;99.90;;;2.12;66.12;94213.78;5032374;28;20214;-70
2021/03/15 00:25:24;;;;;;;0.20;0.20;;;1.30;99.90;;;2.16;65.40;94209.75;5049124;28;20177;-70
2021/03/15 00:27:50;;;;;;;0.50;0.30;;;1.40;99.90;;;2.10;65.34;94213.19;5063708;28;20184;-70
2021/03/15 00:30:18;;;;;;;0.30;0.30;;;1.40;99.90;;;2.16;65.38;94210.56;5070119;28;20200;-70
2021/03/15 00:32:46;;;;;;;0.43;0.43;;;1.40;99.90;;;2.17;65.53;94208.75;5045139;28;20180;-70
2021/03/15 00:35:14;;;;;;;0.60;0.60;;;1.40;99.90;;;2.15;66.12;94202.94;5049314;28;20194;-69
2021/03/15 00:37:42;;;;;;;0.77;0.53;;;1.50;99.90;;;2.23;65.82;94200.09;5049094;28;20617;-69
2021/03/15 00:40:12;;;;;;;0.60;0.60;;;1.50;99.90;;;2.20;66.36;94206.53;5065468;28;20187;-70
2021/03/15 00:42:44;;;;;;;0.80;0.67;;;1.50;99.90;;;2.21;66.27;94209.97;5046734;28;20675;-70
2021/03/15 00:45:17;;;;;;;0.90;0.70;;;1.50;99.90;;;2.24;66.05;94212.16;5064525;28;20162;-69
2021/03/15 00:47:44;;;;;;;0.60;0.60;;;1.50;99.90;;;2.26;66.20;94199.69;5031585;28;20633;-69
2021/03/15 00:50:26;;;;;;;0.50;0.50;;;1.60;99.90;;;2.26;65.73;94200.47;5062150;28;20263;-69
2021/03/15 00:52:52;;;;;;;1.20;0.70;;;1.60;99.90;;;2.28;65.89;94192.44;5041153;28;20181;-69
2021/03/15 00:55:19;;;;;;;0.50;0.50;;;1.60;99.90;;;2.28;65.77;94195.06;5048393;28;20193;-70
2021/03/15 00:57:46;;;;;;;0.60;0.60;;;1.60;99.90;;;2.24;65.77;94191.25;5062209;28;20173;-69
2021/03/15 01:00:16;;;;;;;0.50;0.50;;;1.60;99.90;;;2.24;65.97;94183.41;5070894;28;20184;-69
2021/03/15 01:02:41;;;;;;;0.50;0.50;;;1.60;99.90;;;2.26;66.74;94186.59;5044645;28;20207;-69
2021/03/15 01:05:10;;;;;;;0.43;0.40;;;1.60;99.90;;;2.22;66.59;94188.81;5045504;28;20216;-71
2021/03/15 01:07:37;;;;;;;0.40;0.40;;;1.60;99.90;;;2.16;66.38;94188.84;5019972;28;20180;-69
2021/03/15 01:10:10;;;;;;;0.70;0.70;;;1.50;99.90;;;2.12;66.63;94183.22;5065222;28;20599;-71
2021/03/15 01:12:39;;;;;;;0.60;0.60;;;1.50;99.90;;;2.13;65.61;94179.63;5049042;28;20263;-71
2021/03/15 01:15:11;;;;;;;2.47;1.23;;;1.40;99.90;;;2.04;66.84;94173.00;5052145;28;20642;-71
2021/03/15 01:17:37;;;;;;;2.50;1.00;;;1.40;99.90;;;1.96;65.88;94165.38;5054015;28;20641;-71
2021/03/15 01:20:06;;;;;;;1.80;0.93;;;1.30;99.90;;;1.99;66.42;94167.59;5052096;28;20204;-71
2021/03/15 01:22:34;;;;;;;2.90;1.10;;;1.20;99.90;;;1.99;65.82;94173.63;5053707;28;20990;-71
2021/03/15 01:25:01;;;;;;;1.43;1.10;;;1.30;99.90;;;2.02;66.74;94156.72;5052336;28;20195;-71
2021/03/15 01:27:27;;;;;;;1.53;1.07;;;1.30;99.90;;;2.04;66.22;94157.34;5053253;28;20173;-71
2021/03/15 01:29:55;;;;;;;2.53;1.37;;;1.40;99.90;;;2.11;67.02;94160.72;5032446;28;20182;-71
2021/03/15 01:32:21;;;;;;;1.73;1.40;;;1.40;99.90;;;2.17;66.35;94154.66;5052372;28;20205;-71
2021/03/15 01:34:47;;;;;;;2.00;1.50;;;1.50;99.90;;;2.18;66.57;94134.56;5034896;28;20248;-72
2021/03/15 01:37:13;;;;;;;1.70;1.57;;;1.50;99.90;;;2.15;66.90;94146.22;5052359;28;20187;-71
2021/03/15 01:39:41;;;;;;;1.40;1.30;;;1.50;99.90;;;2.12;66.55;94133.56;5053561;28;20263;-71
2021/03/15 01:42:07;;;;;;;2.03;1.40;;;1.50;99.90;;;2.17;66.98;94130.34;5051968;28;20318;-71
2021/03/15 01:44:34;;;;;;;4.07;1.80;;;1.50;99.90;;;2.20;66.88;94127.31;5054276;28;20749;-71
2021/03/15 01:47:00;;;;;;;2.87;1.57;;;1.50;99.90;;;2.26;66.87;94124.66;5068733;28;20195;-71
2021/03/15 01:49:26;;;;;;;2.60;1.57;;;1.60;99.90;;;2.27;67.16;94128.91;5044548;28;20586;-71
2021/03/15 01:51:55;;;;;;;3.13;1.80;;;1.50;99.90;;;2.28;66.63;94108.78;5031848;28;20195;-71
2021/03/15 01:54:21;;;;;;;3.47;1.80;;;1.60;99.90;;;2.14;66.43;94102.81;5052340;28;20173;-71
2021/03/15 01:56:48;;;;;;;2.77;1.93;;;1.50;99.90;;;2.25;66.61;94102.13;5053166;28;20701;-71
2021/03/15 01:59:17;;;;;;;3.73;2.00;;;1.50;99.90;;;2.11;67.49;94090.16;5051631;28;20183;-71
2021/03/15 02:01:47;;;;;;;3.17;2.27;;;1.40;99.90;;;2.17;67.25;94086.72;5055896;28;20217;-71
2021/03/15 02:04:17;;;;;;;2.43;1.90;;;1.50;99.90;;;2.15;66.74;94093.16;5068245;28;20231;-71
2021/03/15 02:06:45;;;;;;;3.53;2.20;;;1.40;99.90;;;2.20;66.94;94085.47;5051683;28;20252;-71
2021/03/15 02:09:12;;;;;;;2.90;2.30;;;1.50;99.90;;;2.27;66.59;94081.03;5051212;28;20694;-71
2021/03/15 02:12:16;;;;;;;2.87;2.27;;;1.50;99.90;;;2.28;67.62;94082.63;5067815;28;20187;-70
2021/03/15 02:14:56;;;;;;;2.30;2.10;;;1.50;99.90;;;2.24;66.66;94082.25;5052574;28;20901;-71
2021/03/15 02:17:50;;;;;;;3.67;2.27;;;1.50;99.90;;;2.32;67.63;94083.81;5068145;28;20198;-71
2021/03/15 02:20:22;;;;;;;4.23;2.67;;;1.50;99.90;;;2.37;67.24;94076.94;5047242;28;20194;-71
2021/03/15 02:23:02;;;;;;;3.00;2.57;;;1.60;99.90;;;2.42;67.32;94092.00;5067774;28;20287;-71
2021/03/15 02:26:24;;;;;;;4.77;2.33;;;1.70;99.90;;;2.45;67.06;94089.75;5051055;28;20175;-71
2021/03/15 02:29:30;;;;;;;3.90;2.33;;;1.70;99.90;;;2.46;67.04;94086.16;5066512;28;20191;-71
2021/03/15 02:32:41;;;;;;;3.60;2.83;;;1.70;99.90;;;2.45;67.14;94096.84;5051741;28;20217;-71
2021/03/15 02:35:10;;;;;;;3.77;2.30;;;1.80;99.90;;;2.46;67.08;94080.91;5041444;28;20250;-71
2021/03/15 02:37:56;;;;;;;3.87;2.33;;;1.70;99.90;;;2.48;67.27;94093.78;5063512;28;20184;-71
2021/03/15 02:40:37;;;;;;;3.63;2.40;;;1.80;99.90;;;2.44;67.53;94082.16;5042844;28;20181;-70
2021/03/15 02:43:09;;;;;;;3.97;2.53;;;1.70;99.90;;;2.36;67.81;94075.34;5084391;28;20197;-69
2021/03/15 02:45:37;;;;;;;2.57;2.10;;;1.70;99.90;;;2.43;68.05;94070.06;5045559;28;20234;-70
2021/03/15 02:48:07;;;;;;;2.50;2.30;;;1.70;99.90;;;2.38;67.74;94062.06;5050928;28;20172;-70
2021/03/15 02:50:37;;;;;;;2.37;2.17;;;1.70;99.90;;;2.42;67.45;94061.41;5060804;28;20184;-69
2021/03/15 02:53:06;;;;;;;2.47;2.27;;;1.70;99.90;;;2.46;67.63;94061.81;5034554;28;20536;-70
2021/03/15 02:55:34;;;;;;;3.13;2.77;;;1.70;99.90;;;2.37;67.79;94050.81;5033719;28;20631;-69
2021/03/15 02:58:02;;;;;;;3.70;3.10;;;1.70;99.90;;;2.34;67.84;94035.53;5031986;28;20264;-69
2021/03/15 03:00:28;;;;;;;3.90;2.77;;;1.70;99.90;;;2.39;67.52;94047.97;5054939;28;20185;-70
2021/03/15 03:02:55;;;;;;;3.73;2.90;;;1.70;99.90;;;2.38;67.39;94043.75;5049496;28;20218;-70
2021/03/15 03:05:22;;;;;;;2.90;2.60;;;1.80;99.90;;;2.37;67.38;94042.97;5033642;28;20882;-70
2021/03/15 03:07:51;;;;;;;5.20;2.67;;;1.70;99.90;;;2.37;68.11;94034.31;5050134;28;20213;-69
2021/03/15 03:10:22;;;;;;;3.40;2.80;;;1.80;99.90;;;2.40;68.21;94045.16;5063856;28;20187;-70
2021/03/15 03:12:51;;;;;;;3.10;2.80;;;1.80;99.90;;;2.48;67.59;94041.50;5048993;28;20192;-70
2021/03/15 03:15:22;;;;;;;3.43;2.60;;;1.80;99.90;;;2.44;67.98;94046.34;5050298;28;20660;-69
2021/03/15 03:17:52;;;;;;;2.77;2.50;;;1.70;99.90;;;2.43;67.67;94031.66;5046835;28;20179;-69
2021/03/15 03:20:20;;;;;;;1.97;1.87;;;1.70;99.90;;;2.42;67.67;94037.88;5066911;28;20187;-70
2021/03/15 03:22:50;;;;;;;2.60;2.40;;;1.70;99.90;;;2.37;68.24;94024.66;5067036;28;20204;-69
2021/03/15 03:25:18;;;;;;;3.13;2.83;;;1.70;99.90;;;2.28;67.33;94012.84;5050565;28;20172;-69
2021/03/15 03:27:53;;;;;;;7.30;3.13;;;1.60;99.90;;;2.31;68.19;94011.63;5050347;28;20162;-69
2021/03/15 03:30:28;;;;;;;4.00;3.60;;;1.60;99.90;;;2.33;67.55;94005.16;5050214;28;20214;-70
2021/03/15 03:32:56;;;;;;;4.07;3.33;;;1.60;99.90;;;2.30;67.76;94004.78;5066953;28;20334;-70
2021/03/15 03:35:25;;;;;;;3.80;3.20;;;1.60;99.90;;;2.28;68.06;93994.56;5065826;28;20678;-70
2021/03/15 03:37:51;;;;;;;4.20;3.80;;;1.50;99.90;;;2.23;68.60;94004.81;5083183;28;20546;-70
2021/03/15 03:40:19;;;;;;;4.37;3.60;;;1.50;99.90;;;2.26;68.60;93993.13;5032839;28;20180;-70
2021/03/15 03:42:45;;;;;;;3.93;3.50;;;1.50;99.90;;;2.24;67.84;93987.34;5051126;28;20223;-69
2021/03/15 03:45:13;;;;;;;3.50;3.10;;;1.50;99.90;;;2.33;68.19;93986.88;5047166;28;20184;-70
2021/03/15 03:47:39;;;;;;;4.73;3.47;;;1.50;99.90;;;2.41;68.05;93964.91;5049890;28;20177;-70
2021/03/15 03:50:20;;;;;;;4.90;3.53;;;1.60;99.90;;;2.33;68.77;93976.41;5049253;28;20225;-70
2021/03/15 03:53:10;;;;;;;4.13;3.17;;;1.50;99.90;;;2.32;68.53;93969.56;5049883;28;20176;-70
2021/03/15 03:56:06;;;;;;;3.67;3.20;;;1.50;99.90;;;2.42;68.03;93969.91;5049566;28;20177;-69
2021/03/15 03:58:42;;;;;;;4.60;3.43;;;1.60;99.90;;;2.42;68.34;93963.84;5048103;28;20196;-69
2021/03/15 04:01:10;;;;;;;3.50;3.07;;;1.60;99.90;;;2.42;68.61;93962.03;5014378;28;20205;-70
2021/03/15 04:03:41;;;;;;;3.60;3.10;;;1.60;99.90;;;2.48;68.28;93956.00;5031779;28;20374;-70
2021/03/15 04:06:12;;;;;;;2.90;2.60;;;1.60;99.90;;;2.39;68.14;93952.00;5029829;28;20196;-70
2021/03/15 04:08:55;;;;;;;6.97;2.90;;;1.60;99.90;;;2.42;68.37;93948.97;5032014;28;20198;-70
2021/03/15 04:11:26;;;;;;;3.20;2.90;;;1.60;99.90;;;2.48;68.51;93956.00;5031405;28;20181;-70
2021/03/15 04:13:54;;;;;;;3.53;3.07;;;1.70;99.90;;;2.57;68.58;93946.06;5048070;28;20195;-70
2021/03/15 04:16:30;;;;;;;3.37;3.07;;;1.70;99.90;;;2.48;68.28;93942.91;5031021;28;20225;-70
2021/03/15 04:18:58;;;;;;;5.50;3.10;;;1.70;99.90;;;2.46;68.24;93951.97;5031826;28;20214;-70
2021/03/15 04:21:30;;;;;;;3.40;2.80;;;1.60;99.90;;;2.49;69.02;93941.88;5027601;28;20177;-70
2021/03/15 04:24:01;;;;;;;3.77;2.77;;;1.70;99.90;;;2.54;68.98;93936.81;5024162;28;20177;-70
2021/03/15 04:26:27;;;;;;;3.17;2.67;;;1.70;99.90;;;2.61;68.42;93949.84;5049515;28;20208;-70
2021/03/15 04:28:58;;;;;;;3.93;2.50;;;1.80;99.90;;;2.59;68.97;93941.38;5030669;28;20227;-70
2021/03/15 04:31:26;;;;;;;3.17;2.70;;;1.80;99.90;;;2.58;69.21;93935.38;5034853;28;20286;-70
2021/03/15 04:33:57;;;;;;;5.00;2.90;;;1.80;99.90;;;2.65;68.68;93935.31;5048116;28;20187;-70
2021/03/15 04:36:23;;;;;;;2.80;2.50;;;1.90;99.90;;;2.64;68.83;93936.34;5044776;28;20619;-70
2021/03/15 04:38:49;;;;;;;3.97;2.23;;;1.90;99.90;;;2.64;68.88;93925.88;5032887;28;20523;-70
2021/03/15 04:41:17;;;;;;;2.53;1.97;;;1.90;99.90;;;2.63;68.29;93916.41;5065714;28;20274;-70
2021/03/15 04:43:48;;;;;;;3.07;2.20;;;1.90;99.90;;;2.59;69.42;93923.09;5065579;28;20846;-70
2021/03/15 04:46:18;;;;;;;3.13;2.10;;;1.80;99.90;;;2.67;68.53;93929.88;5035174;28;20233;-70
2021/03/15 04:48:47;;;;;;;4.90;2.10;;;1.90;99.90;;;2.58;68.53;93911.03;5036936;28;20632;-69
2021/03/15 04:51:17;;;;;;;2.50;1.87;;;1.80;99.90;;;2.58;68.66;93919.69;5067608;28;20624;-70
2021/03/15 04:53:46;;;;;;;4.63;2.00;;;1.80;99.90;;;2.61;69.46;93921.06;5069564;28;20609;-70
2021/03/15 04:56:18;;;;;;;3.80;1.83;;;1.80;99.90;;;2.57;69.18;93910.22;5069055;28;20539;-70
2021/03/15 04:58:48;;;;;;;1.73;1.43;;;1.80;99.90;;;2.51;69.48;93912.91;5078891;28;20261;-69
2021/03/15 05:01:17;;;;;;;3.53;1.90;;;1.70;99.90;;;2.44;69.54;93905.13;5027060;28;20267;-71
2021/03/15 05:03:49;;;;;;;2.13;1.93;;;1.60;99.90;;;2.40;69.23;93895.28;5035521;28;20206;-71
2021/03/15 05:06:16;;;;;;;2.97;1.80;;;1.60;99.90;;;2.33;68.66;93897.16;5039772;28;20181;-71
2021/03/15 05:08:49;;;;;;;3.30;1.83;;;1.50;99.90;;;2.27;69.07;93908.47;5069572;28;20172;-70
2021/03/15 05:11:20;;;;;;;2.07;1.60;;;1.50;99.90;;;2.28;69.11;93910.09;5047114;28;20285;-69
2021/03/15 05:13:46;;;;;;;1.47;1.37;;;1.50;99.90;;;2.19;68.82;93895.66;5050081;28;20268;-71
2021/03/15 05:16:13;;;;;;;3.60;1.70;;;1.40;99.90;;;2.16;69.20;93902.13;5071168;28;20602;-71
2021/03/15 05:18:41;;;;;;;3.63;2.10;;;1.30;99.90;;;2.03;68.81;93894.38;5066073;28;20173;-70
2021/03/15 05:21:07;;;;;;;2.20;1.63;;;1.20;99.90;;;2.01;68.75;93897.19;5016103;28;20177;-70
2021/03/15 05:23:34;;;;;;;2.50;1.83;;;1.20;99.90;;;1.97;68.74;93880.38;5051904;28;20708;-71
2021/03/15 05:26:02;;;;;;;2.60;1.70;;;1.20;99.90;;;2.02;68.92;93887.56;5067768;28;20223;-71
2021/03/15 05:28:31;;;;;;;2.73;1.70;;;1.20;99.90;;;1.98;68.79;93891.63;5034236;28;20195;-71
2021/03/15 05:31:02;;;;;;;1.83;1.20;;;1.20;99.90;;;2.03;69.30;93876.91;5017637;28;20222;-71
2021/03/15 05:33:35;;;;;;;1.37;1.27;;;1.20;99.90;;;2.00;69.13;93881.75;5033523;28;20203;-71
2021/03/15 05:36:04;;;;;;;1.67;1.53;;;1.20;99.90;;;1.96;68.73;93877.94;5032397;28;20188;-71
2021/03/15 05:38:30;;;;;;;1.40;1.30;;;1.10;99.90;;;1.99;69.68;93880.13;5033863;28;20865;-70
2021/03/15 05:40:57;;;;;;;1.80;1.30;;;1.10;99.90;;;1.97;69.52;93884.78;5039848;28;20224;-70
2021/03/15 05:43:27;;;;;;;1.90;1.20;;;1.10;99.90;;;1.94;69.53;93888.63;5043060;28;20690;-71
2021/03/15 05:46:11;;;;;;;1.77;1.20;;;1.10;99.90;;;1.99;69.60;93891.41;5031032;28;20235;-70
2021/03/15 05:49:10;;;;;;;1.03;0.93;;;1.10;99.90;;;2.00;69.66;93882.56;5032597;28;20205;-70
2021/03/15 05:51:47;;;;;;;3.27;1.20;;;1.10;99.90;;;2.01;69.46;93878.91;5033156;28;20193;-70
2021/03/15 05:54:38;;;;;;;1.50;1.13;;;1.10;99.90;;;2.00;70.01;93879.94;5044335;28;20200;-70
2021/03/15 05:57:29;;;;;;;2.93;1.60;;;1.10;99.90;;;2.04;69.08;93875.91;5046780;28;20238;-69
2021/03/15 06:00:28;;;;;;;2.27;1.57;;;1.10;99.90;;;1.97;69.13;93869.13;5051014;28;20196;-70
2021/03/15 06:03:13;;;;;;;1.47;1.20;;;1.10;99.90;;;1.97;69.13;93861.28;5061553;28;20649;-71
2021/03/15 06:05:45;;;;;;;2.10;1.40;;;1.10;99.90;;;1.94;69.85;93846.03;5046875;28;20188;-70
2021/03/15 06:08:20;;;;;;;2.87;1.50;;;1.10;99.90;;;1.91;69.20;93847.25;5049009;28;20185;-71
2021/03/15 06:11:00;;;;;;;5.00;1.90;;;1.10;99.90;;;1.94;69.95;93840.78;5047734;28;20604;-70
2021/03/15 06:13:28;;;;;;;1.70;1.30;;;1.00;99.90;;;2.00;69.27;93835.53;5048556;28;20176;-70
2021/03/15 06:15:54;;;;;;;3.87;1.50;;;1.10;99.90;;;1.99;70.23;93826.06;5067702;28;20233;-70
2021/03/15 06:18:23;;;;;;;3.37;1.40;;;1.10;99.90;;;2.03;69.28;93829.88;5052270;28;20183;-71
2021/03/15 06:20:50;;;;;;;1.97;1.53;;;1.10;99.90;;;2.06;69.45;93834.66;5033672;28;20190;-71
2021/03/15 06:23:17;;;;;;;1.57;1.23;;;1.20;99.90;;;2.10;69.33;93844.69;5046856;28;20609;-70
2021/03/15 06:25:47;;;;;;;1.50;1.30;;;1.20;99.90;;;2.16;70.04;93855.06;5032299;28;20198;-70
2021/03/15 06:28:19;;;;;;;2.43;1.20;;;1.20;99.90;;;2.21;70.13;93857.88;5032811;28;20678;-70
2021/03/15 06:30:51;;;;;;;1.83;1.10;;;1.30;99.90;;;2.29;70.43;93848.94;5048230;28;20235;-69
2021/03/15 06:33:20;;;;;;;1.80;1.30;;;1.40;99.90;;;2.31;70.33;93836.47;5050541;28;20246;-71
2021/03/15 06:35:48;;;;;;;1.53;0.90;;;1.40;99.90;;;2.29;70.01;93841.09;5067270;28;20195;-71
2021/03/15 06:38:21;;;;;;;1.70;1.20;;;1.40;99.90;;;2.34;69.86;93846.47;5065469;28;20189;-69
2021/03/15 06:40:49;;;;;;;1.17;1.07;;;1.40;99.90;;;2.39;70.50;93820.47;5033174;28;20193;-71
2021/03/15 06:43:19;;;;;;;1.13;1.03;;;1.50;99.90;;;2.42;70.00;93810.38;5049377;28;20639;-71
2021/03/15 06:45:53;;;;;;;0.83;0.80;;;1.50;99.90;;;2.52;70.48;93812.50;5046065;28;20192;-71
2021/03/15 06:48:22;;;;;;;1.43;0.83;;;1.60;99.90;;;2.59;70.00;93815.84;5033063;28;20165;-71
2021/03/15 06:50:50;;;;;;;2.53;0.90;;;1.70;99.90;;;2.53;70.59;93812.28;5051179;28;20196;-71
2021/03/15 06:53:16;;;;;;;1.17;0.80;;;1.60;99.90;;;2.54;70.25;93807.88;5032028;28;20181;-71
2021/03/15 06:55:42;;;;;;;0.90;0.60;;;1.60;99.90;;;2.51;70.62;93816.16;5066774;28;20191;-71
2021/03/15 06:58:25;;;;;;;1.97;0.70;;;1.60;99.90;;;2.56;70.58;93830.16;5051092;28;20184;-71
2021/03/15 07:01:17;;;;;;;1.67;0.60;;;1.70;99.90;;;2.56;70.50;93831.97;5044879;28;20177;-71
2021/03/15 07:03:48;;;;;;;2.53;0.67;;;1.70;99.90;;;2.59;70.35;93834.16;5050014;28;20279;-71
2021/03/15 07:06:18;;;;;;;2.30;0.80;;;1.70;99.90;;;2.55;70.14;93844.25;5042590;28;20230;-70
2021/03/15 07:08:45;;;;;;;0.60;0.60;;;1.60;99.90;;;2.52;70.25;93849.91;5065184;28;20215;-71
2021/03/15 07:11:27;;;;;;;1.20;0.60;;;1.60;99.90;;;2.53;69.86;93851.53;5046707;28;20190;-71
2021/03/15 07:13:54;;;;;;;0.60;0.53;;;1.70;99.90;;;2.56;69.82;93866.78;5044105;28;20172;-70
2021/03/15 07:16:29;;;;;;;1.97;0.80;;;1.70;99.90;;;2.56;70.47;93860.75;5064836;28;20180;-71
2021/03/15 07:19:01;;;;;;;0.93;0.70;;;1.70;99.90;;;2.57;70.07;93865.78;5045995;28;20582;-71
2021/03/15 07:21:40;;;;;;;0.97;0.40;;;1.70;99.90;;;2.55;70.91;93853.94;5044755;28;20599;-71
2021/03/15 07:24:15;;;;;;;0.70;0.50;;;1.70;99.90;;;2.49;70.42;93844.31;5067420;28;20214;-71
2021/03/15 07:26:46;;;;;;;2.63;0.57;;;1.60;99.90;;;2.48;70.36;93821.81;5049721;28;20183;-71
2021/03/15 07:29:17;;;;;;;0.90;0.60;;;1.60;99.90;;;2.38;70.00;93824.13;5033321;28;20207;-72
2021/03/15 07:31:49;;;;;;;1.53;0.70;;;1.50;99.90;;;2.33;70.66;93835.22;5065688;28;20213;-71
2021/03/15 07:34:21;;;;;;;1.80;0.70;;;1.50;99.90;;;2.39;70.94;93857.88;5049543;28;20189;-71
2021/03/15 07:37:02;;;;;;;3.23;0.90;;;1.50;99.90;;;2.45;70.73;93857.00;5034624;28;20193;-71
2021/03/15 07:39:31;;;;;;;2.53;1.10;;;1.50;99.90;;;2.49;70.67;93865.22;5047518;28;20223;-71
2021/03/15 07:42:01;;;;;;;1.10;0.93;;;1.60;99.90;;;2.51;70.23;93868.44;5063716;28;20209;-71
2021/03/15 07:44:43;;;;;;;1.23;1.10;;;1.60;99.90;;;2.57;71.00;93880.66;5063102;28;20180;-71
2021/03/15 07:47:09;;;;;;;1.20;1.10;;;1.70;99.90;;;2.71;70.86;93884.75;5048659;28;20164;-71
2021/03/15 07:49:41;;;;;;;1.40;1.20;;;1.80;99.90;;;2.85;70.85;93877.56;5050125;28;20267;-72
2021/03/15 07:52:08;;;;;;;1.33;1.20;;;1.90;99.90;;;2.89;70.50;93874.28;5054778;28;20177;-72
2021/03/15 07:54:41;;;;;;;1.67;1.10;;;2.00;99.90;;;2.97;70.05;93879.22;5030486;28;20386;-72
2021/03/15 07:57:33;;;;;;;1.43;1.00;;;2.10;99.90;;;3.07;70.47;93889.19;5023705;28;20544;-71
2021/03/15 07:59:59;;;;;;;1.97;0.97;;;2.20;99.90;;;3.03;70.33;93880.16;5047339;28;20667;-73
2021/03/15 08:02:31;;;;;;;1.13;1.00;;;2.20;99.90;;;3.07;71.00;93895.22;5047683;28;20226;-72
2021/03/15 08:04:59;;;;;;;1.90;1.03;;;2.20;99.90;;;3.19;70.28;93895.28;5048667;28;20259;-72
2021/03/15 08:07:25;;;;;;;2.00;0.97;;;2.30;99.90;;;3.05;71.10;93871.09;5049325;28;20176;-71
2021/03/15 08:09:55;;;;;;;2.33;0.90;;;2.30;99.90;;;2.94;70.88;93892.75;5041986;28;20513;-75
2021/03/15 08:12:30;;;;;;;1.43;0.73;;;2.20;99.90;;;2.92;70.70;93897.41;5047562;28;20179;-75
2021/03/15 08:15:06;;;;;;;2.20;1.10;;;2.20;99.90;;;2.94;70.72;93895.38;5045493;28;20185;-76
2021/03/15 08:17:36;;;;;;;1.13;0.70;;;2.10;99.90;;;2.93;71.01;93895.59;5048892;28;21507;-75
2021/03/15 08:20:05;;;;;;;1.67;0.90;;;2.20;99.90;;;2.95;71.49;93906.66;5046466;28;20267;-75
2021/03/15 08:22:42;;;;;;;1.17;0.90;;;2.20;99.90;;;3.00;71.02;93909.41;5042888;28;20230;-71
2021/03/15 08:25:13;;;;;;;0.97;0.50;;;2.20;99.90;;;3.11;70.76;93919.16;5028198;28;20177;-73
2021/03/15 08:27:43;;;;;;;0.60;0.50;;;2.30;99.90;;;2.99;71.19;93916.44;5084572;28;20551;-73
2021/03/15 08:30:27;;;;;;;0.50;0.50;;;2.20;99.90;;;3.01;71.01;93921.47;5074612;28;20173;-74
2021/03/15 08:32:54;;;;;;;0.80;0.50;;;2.20;99.90;;;3.02;71.11;93917.84;5050626;28;20197;-73
2021/03/15 08:35:20;;;;;;;0.57;0.50;;;2.20;99.90;;;3.01;70.93;93921.47;5050036;28;20203;-73
2021/03/15 08:38:06;;;;;;;0.60;0.50;;;2.20;99.90;;;2.94;71.58;93937.25;5034109;28;20216;-74
2021/03/15 08:40:41;;;;;;;0.70;0.50;;;2.10;99.90;;;2.98;70.70;93927.97;5053371;28;20529;-73
2021/03/15 08:43:22;;;;;;;0.70;0.60;;;2.20;99.90;;;3.02;70.61;93941.41;5069874;28;20295;-73
2021/03/15 08:45:53;;;;;;;1.17;0.70;;;2.20;99.90;;;3.08;70.76;93938.72;5059411;28;20201;-72
2021/03/15 08:48:39;;;;;;;0.80;0.70;;;2.30;99.90;;;3.22;71.15;93939.38;5069909;28;20165;-72
2021/03/15 08:51:13;;;;;;;0.70;0.70;;;2.30;99.90;;;3.19;70.57;93928.53;5052956;28;20177;-73
2021/03/15 08:53:44;;;;;;;1.00;0.80;;;2.40;99.90;;;3.21;71.03;93936.97;5053258;28;20173;-73
2021/03/15 08:56:19;;;;;;;1.67;0.77;;;2.40;99.90;;;3.15;70.57;93928.19;5053135;28;20662;-72
2021/03/15 08:58:53;;;;;;;0.97;0.60;;;2.40;99.90;;;3.28;71.33;93937.69;5053551;28;20182;-73
2021/03/15 09:01:45;;;;;;;0.57;0.50;;;2.40;99.90;;;3.33;71.52;93932.59;5059680;28;20279;-72
2021/03/15 09:04:33;;;;;;;0.60;0.47;;;2.50;99.90;;;3.24;71.68;93928.66;5053032;28;20176;-73
2021/03/15 09:07:01;;;;;;;0.73;0.57;;;2.40;99.90;;;3.29;71.44;93926.22;5050910;28;20165;-73
2021/03/15 09:09:32;;;;;;;0.60;0.40;;;2.40;99.90;;;3.52;71.20;93942.06;5027667;28;20611;-73
2021/03/15 09:12:03;;;;;;;1.40;0.67;;;2.60;99.90;;;3.57;71.09;93934.31;5049727;28;20218;-73
2021/03/15 09:14:34;;;;;;;0.70;0.70;;;2.70;99.90;;;3.73;70.90;93933.69;5033778;28;20259;-73
2021/03/15 09:17:24;;;;;;;1.60;0.87;;;2.80;99.90;;;3.79;71.52;93932.84;5065445;28;20184;-74
2021/03/15 09:19:50;;;;;;;0.93;0.77;;;2.90;99.90;;;3.84;71.50;93935.59;5053247;28;20192;-74
2021/03/15 09:22:38;;;;;;;1.33;0.87;;;3.00;99.90;;;3.83;71.23;93941.84;5051748;28;20209;-73
2021/03/15 09:25:18;;;;;;;1.00;0.90;;;3.00;99.90;;;3.83;71.78;93933.97;5051272;28;20222;-74
2021/03/15 09:27:54;;;;;;;1.73;0.70;;;3.10;99.90;;;3.80;71.31;93931.81;5048929;28;20663;-74
2021/03/15 09:30:35;;;;;;;1.27;0.80;;;3.00;99.90;;;3.90;71.23;93942.56;5067853;28;20192;-74
2021/03/15 09:33:00;;;;;;;0.63;0.63;;;3.10;99.90;;;3.82;71.62;93935.03;5046403;28;20702;-74
2021/03/15 09:35:29;;;;;;;0.63;0.60;;;3.00;99.90;;;3.82;71.44;93929.78;5047711;28;20287;-74
2021/03/15 09:38:10;;;;;;;0.87;0.80;;;3.00;99.90;;;3.76;71.17;93945.59;5071534;28;20527;-73
2021/03/15 09:40:47;;;;;;;0.70;0.70;;;2.90;99.90;;;3.74;71.67;93929.28;5050706;28;20177;-72
2021/03/15 09:43:36;;;;;;;0.60;0.60;;;2.90;99.90;;;3.76;70.96;93945.59;5050867;28;20200;-71
2021/03/15 09:46:05;;;;;;;1.10;1.00;;;2.90;99.90;;;3.88;71.40;93941.97;5018673;28;20187;-73
2021/03/15 09:48:33;;;;;;;0.80;0.80;;;3.00;99.90;;;3.87;71.85;93927.28;5035425;28;20250;-71
2021/03/15 09:51:03;;;;;;;0.50;0.50;;;3.00;99.90;;;3.81;71.30;93924.75;5035413;28;20649;-71
2021/03/15 09:53:30;;;;;;;0.60;0.60;;;3.00;99.90;;;3.65;71.06;93912.25;5050844;28;20173;-71
2021/03/15 09:56:11;;;;;;;0.70;0.70;;;2.90;99.90;;;3.74;71.17;93932.69;5067844;28;20192;-72
2021/03/15 09:58:38;;;;;;;0.67;0.67;;;2.90;99.90;;;3.72;71.14;93913.78;5047435;28;20322;-74
2021/03/15 10:01:17;;;;;;;0.90;0.60;;;2.90;99.90;;;3.81;71.54;93917.69;5050547;28;20212;-74
2021/03/15 10:03:54;;;;;;;0.80;0.80;;;2.90;99.90;;;3.87;71.11;93919.41;5036867;28;20197;-71
2021/03/15 10:06:24;;;;;;;0.70;0.70;;;3.00;99.90;;;3.83;71.32;93907.75;5051664;28;20179;-72
2021/03/15 10:08:54;;;;;;;0.80;0.57;;;3.00;99.90;;;3.97;71.73;93922.28;5064545;28;20192;-72
2021/03/15 10:11:21;;;;;;;0.67;0.63;;;3.10;99.90;;;4.01;71.35;93909.53;5050505;28;20233;-73
2021/03/15 10:14:03;;;;;;;0.67;0.67;;;3.10;99.90;;;4.13;71.23;93924.28;5028483;28;20184;-71
2021/03/15 10:16:29;;;;;;;0.80;0.80;;;3.20;99.90;;;4.20;71.58;93905.81;5051350;28;20187;-71
2021/03/15 10:18:56;;;;;;;0.83;0.83;;;3.30;99.90;;;4.42;71.51;93904.28;5070880;28;20216;-72
2021/03/15 10:21:27;;;;;;;0.70;0.70;;;3.50;99.90;;;4.57;71.37;93914.31;5051747;28;20168;-71
2021/03/15 10:23:52;;;;;;;1.00;0.90;;;3.60;99.90;;;4.62;71.58;93920.50;5077577;28;20235;-72
2021/03/15 10:26:19;;;;;;;0.70;0.70;;;3.70;99.90;;;4.72;71.59;93914.69;5048936;28;20213;-72
2021/03/15 10:28:51;;;;;;;0.70;0.70;;;3.80;99.90;;;4.79;71.72;93912.75;5067073;28;20169;-72
2021/03/15 10:31:23;;;;;;;0.60;0.40;;;4.00;99.90;;;4.79;71.70;93920.63;5041141;28;20210;-72
2021/03/15 10:33:51;;;;;;;0.67;0.67;;;4.00;99.90;;;4.72;71.30;93916.50;5066326;28;20594;-73
2021/03/15 10:36:27;;;;;;;0.50;0.50;;;4.00;99.90;;;4.91;71.55;93920.59;5064261;28;20196;-72
2021/03/15 10:38:55;;;;;;;0.50;0.50;;;4.20;99.90;;;4.97;71.97;93917.06;5065183;28;20200;-72
2021/03/15 10:41:23;;;;;;;1.20;0.60;;;4.20;99.90;;;5.10;71.41;93906.34;5066801;28;20182;-73
2021/03/15 10:43:50;;;;;;;0.50;0.43;;;4.30;99.90;;;5.21;71.38;93899.44;5066524;28;20206;-73
2021/03/15 10:46:28;;;;;;;0.50;0.50;;;4.40;99.90;;;5.34;71.65;93901.84;5049700;28;20173;-72
2021/03/15 10:48:54;;;;;;;0.50;0.50;;;4.60;99.90;;;5.14;71.68;93891.69;5030845;28;20700;-72
2021/03/15 10:51:21;;;;;;;0.73;0.73;;;4.50;99.90;;;5.03;71.59;93887.25;5044937;28;20182;-72
2021/03/15 10:53:52;;;;;;;0.40;0.40;;;4.40;99.90;;;5.05;71.30;93890.44;5030588;28;20612;-72